Time;durP1;ratioP1;P1;durP2;ratioP2;P2;SDS_P1;SDS_P2;PMS_P1;PMS_P2;Temp;Humidity;BMP_temperature;BMP_pressure;BME280_temperature;BME280_humidity;BME280_pressure;Samples;Min_cycle;Max_cycle;Signal;HPM_P1;HPM_P2
2024/02/27 00:01:44;;;;;;;;;;;;;;;;;;4949359;28;92896;-77
2024/02/27 00:04:10;;;;;;;;;;;;;;;;;;4931754;28;89001;-79
2024/02/27 00:06:35;;;;;;;;;;;;;;;;;;4929393;28;90094;-79
2024/02/27 00:09:02;;;;;;;;;;;;;;;;;;4931633;28;89280;-78
2024/02/27 00:11:29;;;;;;;;;;;;;;;;;;4930865;28;89062;-79
2024/02/27 00:13:54;;;;;;;;;;;;;;;;;;4931475;28;89769;-77
2024/02/27 00:16:20;;;;;;;;;;;;;;;;;;4930564;28;92020;-77
2024/02/27 00:18:47;;;;;;;;;;;;;;;;;;4931733;28;89053;-76
2024/02/27 00:21:12;;;;;;;;;;;;;;;;;;4932246;28;89510;-80
2024/02/27 00:23:38;;;;;;;;;;;;;;;;;;4935255;28;89828;-78
2024/02/27 00:26:03;;;;;;;;;;;;;;;;;;4931567;28;89623;-76
2024/02/27 00:28:28;;;;;;;;;;;;;;;;;;4931299;28;91151;-78
2024/02/27 00:30:53;;;;;;;;;;;;;;;;;;4931668;28;89447;-77
2024/02/27 00:33:19;;;;;;;;;;;;;;;;;;4946477;28;92299;-80
2024/02/27 00:35:44;;;;;;;;;;;;;;;;;;4931725;28;89086;-77
2024/02/27 00:38:10;;;;;;;;;;;;;;;;;;4946512;28;90640;-77
2024/02/27 00:40:36;;;;;;;;;;;;;;;;;;4931265;28;90741;-78
2024/02/27 00:43:01;;;;;;;;;;;;;;;;;;4930687;28;89413;-79
2024/02/27 00:45:27;;;;;;;;;;;;;;;;;;4932028;28;90705;-80
2024/02/27 00:47:52;;;;;;;;;;;;;;;;;;4930877;28;89385;-77
2024/02/27 00:50:17;;;;;;;;;;;;;;;;;;4930816;28;89061;-78
2024/02/27 00:52:42;;;;;;;;;;;;;;;;;;4930704;28;89474;-78
2024/02/27 00:55:08;;;;;;;;;;;;;;;;;;4928916;28;92001;-78
2024/02/27 00:57:33;;;;;;;;;;;;;;;;;;4931469;28;89034;-78
2024/02/27 01:00:03;;;;;;;;;;;;;;;;;;4930029;28;92380;-78
2024/02/27 01:02:29;;;;;;;;;;;;;;;;;;4946288;28;91926;-78
2024/02/27 01:04:54;;;;;;;;;;;;;;;;;;4930609;28;89646;-77
2024/02/27 01:07:19;;;;;;;;;;;;;;;;;;4933368;28;89619;-79
2024/02/27 01:09:44;;;;;;;;;;;;;;;;;;4930946;28;89032;-77
2024/02/27 01:12:09;;;;;;;;;;;;;;;;;;4931167;28;88944;-79
2024/02/27 01:14:35;;;;;;;;;;;;;;;;;;4930900;28;89594;-79
2024/02/27 01:17:00;;;;;;;;;;;;;;;;;;4931004;28;89155;-80
2024/02/27 01:19:26;;;;;;;;;;;;;;;;;;4928209;28;92081;-79
2024/02/27 01:21:51;;;;;;;;;;;;;;;;;;4926197;28;91947;-77
2024/02/27 01:24:16;;;;;;;;;;;;;;;;;;4911433;28;89302;-78
2024/02/27 01:26:41;;;;;;;;;;;;;;;;;;4942770;28;92840;-79
2024/02/27 01:29:07;;;;;;;;;;;;;;;;;;4945007;28;91891;-80
2024/02/27 01:31:32;;;;;;;;;;;;;;;;;;4925384;28;92428;-78
2024/02/27 01:33:57;;;;;;;;;;;;;;;;;;4911617;28;89351;-77
2024/02/27 01:36:22;;;;;;;;;;;;;;;;;;4911028;28;89438;-78
2024/02/27 01:38:48;;;;;;;;;;;;;;;;;;4910951;28;89522;-78
2024/02/27 01:41:13;;;;;;;;;;;;;;;;;;4910684;28;89691;-77
2024/02/27 01:43:38;;;;;;;;;;;;;;;;;;4911302;28;89443;-80
2024/02/27 01:46:09;;;;;;;;;;;;;;;;;;4911270;28;89519;-78
2024/02/27 01:48:34;;;;;;;;;;;;;;;;;;4914759;28;89138;-76
2024/02/27 01:51:00;;;;;;;;;;;;;;;;;;4911503;28;89705;-77
2024/02/27 01:53:25;;;;;;;;;;;;;;;;;;4944930;28;92224;-79
2024/02/27 01:55:51;;;;;;;;;;;;;;;;;;4929743;28;89507;-77
2024/02/27 01:58:17;;;;;;;;;;;;;;;;;;4928196;28;92604;-78
2024/02/27 02:00:43;;;;;;;;;;;;;;;;;;4930047;28;89661;-77
2024/02/27 02:03:09;;;;;;;;;;;;;;;;;;4930414;28;89048;-78
2024/02/27 02:05:34;;;;;;;;;;;;;;;;;;4930038;28;89765;-78
2024/02/27 02:07:59;;;;;;;;;;;;;;;;;;4933192;28;89304;-77
2024/02/27 02:10:25;;;;;;;;;;;;;;;;;;4935032;28;91259;-77
2024/02/27 02:12:50;;;;;;;;;;;;;;;;;;4934188;28;89483;-79
2024/02/27 02:15:16;;;;;;;;;;;;;;;;;;4948718;28;90208;-78
2024/02/27 02:17:42;;;;;;;;;;;;;;;;;;4932749;28;92689;-80
2024/02/27 02:20:08;;;;;;;;;;;;;;;;;;4933601;28;89592;-77
2024/02/27 02:22:33;;;;;;;;;;;;;;;;;;4933933;28;89432;-78
2024/02/27 02:24:59;;;;;;;;;;;;;;;;;;4933517;28;91372;-77
2024/02/27 02:27:25;;;;;;;;;;;;;;;;;;4933908;28;89691;-78
2024/02/27 02:29:51;;;;;;;;;;;;;;;;;;4949360;28;90554;-81
2024/02/27 02:32:16;;;;;;;;;;;;;;;;;;4936917;28;89455;-78
2024/02/27 02:34:42;;;;;;;;;;;;;;;;;;4934008;28;89033;-78
2024/02/27 02:37:07;;;;;;;;;;;;;;;;;;4933940;28;89580;-78
2024/02/27 02:39:32;;;;;;;;;;;;;;;;;;4933880;28;89140;-78
2024/02/27 02:41:57;;;;;;;;;;;;;;;;;;4933217;28;89190;-79
2024/02/27 02:44:23;;;;;;;;;;;;;;;;;;4933310;28;89001;-76
2024/02/27 02:46:48;;;;;;;;;;;;;;;;;;4947758;28;92067;-78
2024/02/27 02:49:13;;;;;;;;;;;;;;;;;;4948541;28;90694;-80
2024/02/27 02:51:39;;;;;;;;;;;;;;;;;;4948461;28;92507;-77
2024/02/27 02:54:04;;;;;;;;;;;;;;;;;;4936583;28;89253;-78
2024/02/27 02:56:29;;;;;;;;;;;;;;;;;;4933528;28;89761;-77
2024/02/27 02:58:54;;;;;;;;;;;;;;;;;;4932092;28;91300;-77
2024/02/27 03:01:20;;;;;;;;;;;;;;;;;;4933822;28;89130;-77
2024/02/27 03:03:45;;;;;;;;;;;;;;;;;;4933652;28;89654;-80
2024/02/27 03:06:10;;;;;;;;;;;;;;;;;;4933244;28;89585;-79
2024/02/27 03:08:35;;;;;;;;;;;;;;;;;;4932205;28;89104;-77
2024/02/27 03:11:01;;;;;;;;;;;;;;;;;;4947232;28;92369;-78
2024/02/27 03:13:26;;;;;;;;;;;;;;;;;;4932328;28;89477;-77
2024/02/27 03:15:51;;;;;;;;;;;;;;;;;;4935445;28;89067;-79
2024/02/27 03:18:17;;;;;;;;;;;;;;;;;;4931963;28;89096;-78
2024/02/27 03:20:42;;;;;;;;;;;;;;;;;;4932441;28;89366;-79
2024/02/27 03:23:07;;;;;;;;;;;;;;;;;;4932636;28;89483;-78
2024/02/27 03:25:32;;;;;;;;;;;;;;;;;;4927660;28;92432;-78
2024/02/27 03:27:58;;;;;;;;;;;;;;;;;;4927480;28;89277;-75
2024/02/27 03:30:23;;;;;;;;;;;;;;;;;;4913129;28;89825;-80
2024/02/27 03:32:48;;;;;;;;;;;;;;;;;;4913181;28;89336;-81
2024/02/27 03:35:13;;;;;;;;;;;;;;;;;;4930095;28;91181;-77
2024/02/27 03:37:39;;;;;;;;;;;;;;;;;;4917829;28;89491;-77
2024/02/27 03:40:07;;;;;;;;;;;;;;;;;;4921473;28;89199;-77
2024/02/27 03:42:34;;;;;;;;;;;;;;;;;;4921461;28;89028;-78
2024/02/27 03:44:59;;;;;;;;;;;;;;;;;;4918156;28;89310;-77
2024/02/27 03:47:24;;;;;;;;;;;;;;;;;;4930414;28;89493;-78
2024/02/27 03:49:50;;;;;;;;;;;;;;;;;;4923606;28;90139;-77
2024/02/27 03:52:15;;;;;;;;;;;;;;;;;;4924336;28;89138;-78
2024/02/27 03:54:40;;;;;;;;;;;;;;;;;;4925055;28;89712;-78
2024/02/27 03:57:06;;;;;;;;;;;;;;;;;;4917690;28;89558;-78
2024/02/27 03:59:32;;;;;;;;;;;;;;;;;;4922145;28;89988;-77
2024/02/27 04:01:57;;;;;;;;;;;;;;;;;;4938448;28;92439;-77
2024/02/27 04:04:22;;;;;;;;;;;;;;;;;;4918877;28;91742;-79
2024/02/27 04:06:48;;;;;;;;;;;;;;;;;;4914996;28;89043;-76
2024/02/27 04:09:13;;;;;;;;;;;;;;;;;;4919351;28;89855;-79
2024/02/27 04:11:39;;;;;;;;;;;;;;;;;;4921303;28;89245;-76
2024/02/27 04:14:05;;;;;;;;;;;;;;;;;;4930332;28;89943;-78
2024/02/27 04:16:30;;;;;;;;;;;;;;;;;;4923668;28;89537;-77
2024/02/27 04:18:56;;;;;;;;;;;;;;;;;;4935710;28;91812;-78
2024/02/27 04:21:21;;;;;;;;;;;;;;;;;;4920963;28;89551;-77
2024/02/27 04:23:46;;;;;;;;;;;;;;;;;;4922741;28;90158;-80
2024/02/27 04:26:12;;;;;;;;;;;;;;;;;;4922973;28;89062;-78
2024/02/27 04:28:37;;;;;;;;;;;;;;;;;;4919701;28;90006;-79
2024/02/27 04:31:04;;;;;;;;;;;;;;;;;;4925033;28;89620;-77
2024/02/27 04:33:29;;;;;;;;;;;;;;;;;;4923474;28;89016;-78
2024/02/27 04:35:55;;;;;;;;;;;;;;;;;;4928296;28;90049;-81
2024/02/27 04:38:21;;;;;;;;;;;;;;;;;;4926935;28;89037;-80
2024/02/27 04:40:46;;;;;;;;;;;;;;;;;;4943337;28;90620;-78
2024/02/27 04:43:12;;;;;;;;;;;;;;;;;;4920986;28;89417;-76
2024/02/27 04:45:37;;;;;;;;;;;;;;;;;;4920297;28;89360;-77
2024/02/27 04:48:04;;;;;;;;;;;;;;;;;;4928338;28;89724;-76
2024/02/27 04:50:29;;;;;;;;;;;;;;;;;;4936275;28;92019;-78
2024/02/27 04:52:54;;;;;;;;;;;;;;;;;;4921029;28;89136;-77
2024/02/27 04:55:20;;;;;;;;;;;;;;;;;;4916073;28;92778;-76
2024/02/27 04:57:45;;;;;;;;;;;;;;;;;;4923046;28;90350;-78
2024/02/27 05:00:11;;;;;;;;;;;;;;;;;;4924808;28;89462;-79
2024/02/27 05:02:36;;;;;;;;;;;;;;;;;;4924327;28;89871;-78
2024/02/27 05:05:01;;;;;;;;;;;;;;;;;;4920431;28;89031;-79
2024/02/27 05:07:27;;;;;;;;;;;;;;;;;;4915809;28;91679;-79
2024/02/27 05:09:52;;;;;;;;;;;;;;;;;;4919620;28;89286;-78
2024/02/27 05:12:17;;;;;;;;;;;;;;;;;;4916164;28;89007;-76
2024/02/27 05:14:42;;;;;;;;;;;;;;;;;;4922026;28;91682;-81
2024/02/27 05:17:08;;;;;;;;;;;;;;;;;;4922467;28;89564;-78
2024/02/27 05:19:33;;;;;;;;;;;;;;;;;;4914733;28;89162;-78
2024/02/27 05:21:59;;;;;;;;;;;;;;;;;;4921368;28;89527;-78
2024/02/27 05:24:24;;;;;;;;;;;;;;;;;;4933966;28;92175;-77
2024/02/27 05:26:50;;;;;;;;;;;;;;;;;;4921840;28;90074;-78
2024/02/27 05:29:15;;;;;;;;;;;;;;;;;;4936576;28;91895;-78
2024/02/27 05:31:40;;;;;;;;;;;;;;;;;;4919113;28;89559;-83
2024/02/27 05:34:07;;;;;;;;;;;;;;;;;;4936411;28;92312;-80
2024/02/27 05:36:33;;;;;;;;;;;;;;;;;;4921417;28;89492;-77
2024/02/27 05:38:58;;;;;;;;;;;;;;;;;;4919625;28;91319;-78
2024/02/27 05:41:23;;;;;;;;;;;;;;;;;;4926833;28;92085;-80
2024/02/27 05:43:49;;;;;;;;;;;;;;;;;;4923107;28;89178;-80
2024/02/27 05:46:14;;;;;;;;;;;;;;;;;;4920537;28;90396;-80
2024/02/27 05:48:41;;;;;;;;;;;;;;;;;;4913730;28;89927;-77
2024/02/27 05:51:07;;;;;;;;;;;;;;;;;;4935151;28;90500;-77
2024/02/27 05:53:34;;;;;;;;;;;;;;;;;;4916033;28;89134;-78
2024/02/27 05:55:59;;;;;;;;;;;;;;;;;;4933883;28;90881;-81
2024/02/27 05:58:25;;;;;;;;;;;;;;;;;;4917925;28;89061;-79
2024/02/27 06:00:51;;;;;;;;;;;;;;;;;;4921727;28;92421;-78
2024/02/27 06:03:19;;;;;;;;;;;;;;;;;;4913948;28;89319;-77
2024/02/27 06:05:45;;;;;;;;;;;;;;;;;;4929432;28;90300;-77
2024/02/27 06:08:11;;;;;;;;;;;;;;;;;;4911466;28;91330;-77
2024/02/27 06:10:36;;;;;;;;;;;;;;;;;;4913355;28;89313;-78
2024/02/27 06:13:01;;;;;;;;;;;;;;;;;;4926314;28;92381;-76
2024/02/27 06:15:27;;;;;;;;;;;;;;;;;;4917968;28;90642;-76
2024/02/27 06:17:52;;;;;;;;;;;;;;;;;;4919771;28;89518;-79
2024/02/27 06:23:01;;;;;;;;;;;;;;;;;;4919312;28;89512;-82
2024/02/27 06:25:26;;;;;;;;;;;;;;;;;;4922849;28;89399;-77
2024/02/27 06:27:52;;;;;;;;;;;;;;;;;;4929232;28;92320;-76
2024/02/27 06:30:17;;;;;;;;;;;;;;;;;;4925564;28;89695;-77
2024/02/27 06:32:43;;;;;;;;;;;;;;;;;;4922926;28;90111;-79
2024/02/27 06:35:09;;;;;;;;;;;;;;;;;;4929515;28;90805;-79
2024/02/27 06:37:34;;;;;;;;;;;;;;;;;;4923182;28;89167;-78
2024/02/27 06:40:00;;;;;;;;;;;;;;;;;;4937229;28;92486;-79
2024/02/27 06:42:33;;;;;;;;;;;;;;;;;;4937585;28;89562;-77
2024/02/27 06:44:59;;;;;;;;;;;;;;;;;;4939642;28;89333;-79
2024/02/27 06:47:24;;;;;;;;;;;;;;;;;;4935753;28;89249;-79
2024/02/27 06:49:50;;;;;;;;;;;;;;;;;;4952189;28;92116;-79
2024/02/27 06:52:15;;;;;;;;;;;;;;;;;;4938869;28;89988;-78
2024/02/27 06:54:41;;;;;;;;;;;;;;;;;;4942193;28;89158;-77
2024/02/27 06:57:07;;;;;;;;;;;;;;;;;;4941966;28;90497;-77
2024/02/27 06:59:32;;;;;;;;;;;;;;;;;;4940921;28;92367;-78
2024/02/27 07:01:57;;;;;;;;;;;;;;;;;;4942496;28;89217;-79
2024/02/27 07:04:23;;;;;;;;;;;;;;;;;;4939419;28;89179;-77
2024/02/27 07:06:48;;;;;;;;;;;;;;;;;;4949677;28;92494;-77
2024/02/27 07:09:13;;;;;;;;;;;;;;;;;;4942271;28;91990;-80
2024/02/27 07:11:39;;;;;;;;;;;;;;;;;;4945262;28;89037;-79
2024/02/27 07:14:04;;;;;;;;;;;;;;;;;;4942965;28;89157;-77
2024/02/27 07:16:30;;;;;;;;;;;;;;;;;;4943921;28;88975;-79
2024/02/27 07:18:55;;;;;;;;;;;;;;;;;;4943961;28;89605;-78
2024/02/27 07:21:20;;;;;;;;;;;;;;;;;;4943553;28;89601;-83
2024/02/27 07:23:45;;;;;;;;;;;;;;;;;;4941697;28;89669;-76
2024/02/27 07:26:10;;;;;;;;;;;;;;;;;;4941520;28;89834;-80
2024/02/27 07:28:36;;;;;;;;;;;;;;;;;;4942055;28;89193;-78
2024/02/27 07:31:01;;;;;;;;;;;;;;;;;;4941777;28;89568;-77
2024/02/27 07:33:27;;;;;;;;;;;;;;;;;;4946965;28;89435;-80
2024/02/27 07:35:52;;;;;;;;;;;;;;;;;;4958170;28;91748;-80
2024/02/27 07:38:18;;;;;;;;;;;;;;;;;;4945085;28;90939;-77
2024/02/27 07:40:43;;;;;;;;;;;;;;;;;;4965117;28;91814;-78
2024/02/27 07:43:08;;;;;;;;;;;;;;;;;;4942641;28;89250;-79
2024/02/27 07:45:34;;;;;;;;;;;;;;;;;;4943336;28;90084;-78
2024/02/27 07:48:00;;;;;;;;;;;;;;;;;;4941975;28;90001;-80
2024/02/27 07:50:26;;;;;;;;;;;;;;;;;;4942733;28;90057;-81
2024/02/27 07:52:51;;;;;;;;;;;;;;;;;;4941233;28;90032;-83
2024/02/27 07:55:17;;;;;;;;;;;;;;;;;;4947605;28;90462;-80
2024/02/27 07:57:42;;;;;;;;;;;;;;;;;;4943424;28;89049;-77
2024/02/27 08:00:09;;;;;;;;;;;;;;;;;;4945250;28;89355;-79
2024/02/27 08:02:35;;;;;;;;;;;;;;;;;;4942620;28;89105;-78
2024/02/27 08:05:01;;;;;;;;;;;;;;;;;;4943121;28;89336;-82
2024/02/27 08:07:27;;;;;;;;;;;;;;;;;;4952005;28;91390;-80
2024/02/27 08:09:52;;;;;;;;;;;;;;;;;;4938839;28;90116;-77
2024/02/27 08:12:17;;;;;;;;;;;;;;;;;;4942506;28;92915;-85
2024/02/27 08:14:43;;;;;;;;;;;;;;;;;;4947838;28;89279;-82
2024/02/27 08:17:08;;;;;;;;;;;;;;;;;;4943778;28;89562;-78
2024/02/27 08:19:34;;;;;;;;;;;;;;;;;;4945116;28;89376;-79
2024/02/27 08:22:03;;;;;;;;;;;;;;;;;;4946272;28;89463;-78
2024/02/27 08:24:29;;;;;;;;;;;;;;;;;;4942933;28;89455;-83
2024/02/27 08:26:54;;;;;;;;;;;;;;;;;;4941092;28;89277;-78
2024/02/27 08:29:20;;;;;;;;;;;;;;;;;;4939925;28;89175;-79
2024/02/27 08:31:45;;;;;;;;;;;;;;;;;;4941784;28;89627;-79
2024/02/27 08:34:10;;;;;;;;;;;;;;;;;;4938364;28;91923;-81
2024/02/27 08:36:36;;;;;;;;;;;;;;;;;;4939650;28;88983;-82
2024/02/27 08:39:02;;;;;;;;;;;;;;;;;;4947500;28;89264;-79
2024/02/27 08:41:27;;;;;;;;;;;;;;;;;;4945922;28;89055;-79
2024/02/27 08:43:53;;;;;;;;;;;;;;;;;;4943710;28;89514;-79
2024/02/27 08:46:18;;;;;;;;;;;;;;;;;;4940598;28;89232;-79
2024/02/27 08:48:47;;;;;;;;;;;;;;;;;;4939831;28;89761;-79
2024/02/27 08:51:12;;;;;;;;;;;;;;;;;;4942060;28;89553;-79
2024/02/27 08:53:38;;;;;;;;;;;;;;;;;;4937335;28;90260;-78
2024/02/27 08:56:06;;;;;;;;;;;;;;;;;;4941148;28;91245;-77
2024/02/27 08:58:31;;;;;;;;;;;;;;;;;;4945708;28;90034;-80
2024/02/27 09:00:57;;;;;;;;;;;;;;;;;;4948224;28;90796;-77
2024/02/27 09:03:22;;;;;;;;;;;;;;;;;;4941249;28;89539;-77
2024/02/27 09:05:47;;;;;;;;;;;;;;;;;;4943089;28;90610;-80
2024/02/27 09:08:14;;;;;;;;;;;;;;;;;;4944971;28;89074;-78
2024/02/27 09:10:39;;;;;;;;;;;;;;;;;;4943929;28;92350;-77
2024/02/27 09:13:05;;;;;;;;;;;;;;;;;;4937874;28;90746;-79
2024/02/27 09:15:30;;;;;;;;;;;;;;;;;;4938885;28;89562;-78
2024/02/27 09:17:55;;;;;;;;;;;;;;;;;;4940247;28;89642;-76
2024/02/27 09:20:20;;;;;;;;;;;;;;;;;;4937421;28;89558;-77
2024/02/27 09:22:46;;;;;;;;;;;;;;;;;;4941792;28;89896;-80
2024/02/27 09:25:13;;;;;;;;;;;;;;;;;;4936831;28;90800;-78
2024/02/27 09:27:38;;;;;;;;;;;;;;;;;;4939406;28;89553;-82
2024/02/27 09:30:04;;;;;;;;;;;;;;;;;;4943269;28;88966;-81
2024/02/27 09:32:30;;;;;;;;;;;;;;;;;;4933720;28;92050;-80
2024/02/27 09:34:55;;;;;;;;;;;;;;;;;;4939117;28;89001;-78
2024/02/27 09:37:22;;;;;;;;;;;;;;;;;;4935173;28;89711;-78
2024/02/27 09:39:47;;;;;;;;;;;;;;;;;;4935881;28;92123;-80
2024/02/27 09:42:12;;;;;;;;;;;;;;;;;;4941795;28;89135;-83
2024/02/27 09:44:41;;;;;;;;;;;;;;;;;;4938575;28;89248;-80
2024/02/27 09:47:07;;;;;;;;;;;;;;;;;;4955197;28;90532;-79
2024/02/27 09:49:42;;;;;;;;;;;;;;;;;;4932800;28;89032;-80
2024/02/27 09:52:17;;;;;;;;;;;;;;;;;;4937157;28;90286;-80
2024/02/27 09:54:43;;;;;;;;;;;;;;;;;;4935527;28;91274;-79
2024/02/27 09:57:08;;;;;;;;;;;;;;;;;;4939245;28;90771;-77
2024/02/27 09:59:34;;;;;;;;;;;;;;;;;;4945423;28;91982;-79
2024/02/27 10:02:10;;;;;;;;;;;;;;;;;;4945096;28;91211;-85
2024/02/27 10:04:36;;;;;;;;;;;;;;;;;;4944691;28;89499;-79
2024/02/27 10:07:05;;;;;;;;;;;;;;;;;;4933190;28;89598;-77
2024/02/27 10:09:34;;;;;;;;;;;;;;;;;;4940665;28;89034;-77
2024/02/27 10:11:59;;;;;;;;;;;;;;;;;;4947095;28;89136;-78
2024/02/27 10:14:30;;;;;;;;;;;;;;;;;;4945249;28;89282;-78
2024/02/27 10:16:56;;;;;;;;;;;;;;;;;;4943559;28;89539;-76
2024/02/27 10:19:21;;;;;;;;;;;;;;;;;;4944968;28;92353;-78
2024/02/27 10:21:46;;;;;;;;;;;;;;;;;;4941151;28;89409;-76
2024/02/27 10:24:18;;;;;;;;;;;;;;;;;;4941095;28;92762;-77
2024/02/27 10:26:50;;;;;;;;;;;;;;;;;;4939185;28;89569;-78
2024/02/27 10:29:16;;;;;;;;;;;;;;;;;;4942454;28;91196;-78
2024/02/27 10:31:42;;;;;;;;;;;;;;;;;;4945014;28;89607;-79
2024/02/27 10:34:08;;;;;;;;;;;;;;;;;;4939346;28;90267;-78
2024/02/27 10:36:33;;;;;;;;;;;;;;;;;;4936940;28;89584;-78
2024/02/27 10:39:10;;;;;;;;;;;;;;;;;;4942957;28;89772;-81
2024/02/27 10:41:39;;;;;;;;;;;;;;;;;;4941881;28;90868;-77
2024/02/27 10:44:07;;;;;;;;;;;;;;;;;;4940156;28;89362;-77
2024/02/27 10:46:33;;;;;;;;;;;;;;;;;;4947832;28;89241;-80
2024/02/27 10:48:59;;;;;;;;;;;;;;;;;;4948618;28;91265;-79
2024/02/27 10:51:24;;;;;;;;;;;;;;;;;;4941989;28;90052;-78
2024/02/27 10:53:51;;;;;;;;;;;;;;;;;;4941218;28;89901;-77
2024/02/27 10:56:16;;;;;;;;;;;;;;;;;;4940184;28;89463;-77
2024/02/27 10:58:42;;;;;;;;;;;;;;;;;;4944179;28;89282;-77
2024/02/27 11:01:08;;;;;;;;;;;;;;;;;;4947201;28;90901;-78
2024/02/27 11:03:35;;;;;;;;;;;;;;;;;;4943140;28;89550;-79
2024/02/27 11:06:01;;;;;;;;;;;;;;;;;;4942360;28;89169;-80
2024/02/27 11:08:26;;;;;;;;;;;;;;;;;;4943505;28;89400;-77
2024/02/27 11:10:52;;;;;;;;;;;;;;;;;;4941482;28;89098;-77
2024/02/27 11:13:19;;;;;;;;;;;;;;;;;;4933089;28;89362;-78
2024/02/27 11:15:46;;;;;;;;;;;;;;;;;;4938785;28;89739;-79
2024/02/27 11:18:12;;;;;;;;;;;;;;;;;;4943781;28;89409;-77
2024/02/27 11:20:38;;;;;;;;;;;;;;;;;;4946350;28;89037;-77
2024/02/27 11:23:04;;;;;;;;;;;;;;;;;;4943561;28;91753;-79
2024/02/27 11:25:29;;;;;;;;;;;;;;;;;;4943862;28;89322;-78
2024/02/27 11:27:57;;;;;;;;;;;;;;;;;;4943724;28;89018;-78
2024/02/27 11:30:24;;;;;;;;;;;;;;;;;;4951844;28;91337;-79
2024/02/27 11:32:49;;;;;;;;;;;;;;;;;;4960886;28;89283;-78
2024/02/27 11:35:18;;;;;;;;;;;;;;;;;;4943168;28;92528;-79
2024/02/27 11:37:44;;;;;;;;;;;;;;;;;;4938193;28;89215;-78
2024/02/27 11:40:10;;;;;;;;;;;;;;;;;;4932498;28;89233;-78
2024/02/27 11:42:35;;;;;;;;;;;;;;;;;;4942632;28;89407;-78
2024/02/27 11:45:20;;;;;;;;;;;;;;;;;;4946189;28;90910;-78
2024/02/27 11:47:53;;;;;;;;;;;;;;;;;;4947264;28;89550;-77
2024/02/27 11:50:45;;;;;;;;;;;;;;;;;;4947588;28;92297;-79
2024/02/27 11:53:16;;;;;;;;;;;;;;;;;;4944978;28;91121;-78
2024/02/27 11:55:44;;;;;;;;;;;;;;;;;;4937874;28;94532;-77
2024/02/27 11:58:10;;;;;;;;;;;;;;;;;;4939272;28;90518;-77
2024/02/27 12:00:36;;;;;;;;;;;;;;;;;;4944375;28;89062;-77
2024/02/27 12:03:01;;;;;;;;;;;;;;;;;;4941712;28;89636;-77
2024/02/27 12:05:27;;;;;;;;;;;;;;;;;;4944524;28;89473;-78
2024/02/27 12:07:57;;;;;;;;;;;;;;;;;;4947673;28;89065;-78
2024/02/27 12:10:23;;;;;;;;;;;;;;;;;;4946663;28;89135;-78
2024/02/27 12:12:49;;;;;;;;;;;;;;;;;;4953796;28;90200;-78
2024/02/27 12:15:14;;;;;;;;;;;;;;;;;;4940770;28;90989;-76
2024/02/27 12:17:39;;;;;;;;;;;;;;;;;;4942559;28;89198;-77
2024/02/27 12:20:05;;;;;;;;;;;;;;;;;;4941458;28;89184;-77
2024/02/27 12:22:31;;;;;;;;;;;;;;;;;;4941084;28;92325;-77
2024/02/27 12:24:58;;;;;;;;;;;;;;;;;;4944923;28;89650;-77
2024/02/27 12:27:23;;;;;;;;;;;;;;;;;;4940838;28;89162;-77
2024/02/27 12:29:49;;;;;;;;;;;;;;;;;;4942266;28;89728;-77
2024/02/27 12:32:14;;;;;;;;;;;;;;;;;;4942837;28;89368;-78
2024/02/27 12:34:39;;;;;;;;;;;;;;;;;;4943534;28;89155;-78
2024/02/27 12:37:05;;;;;;;;;;;;;;;;;;4937290;28;89433;-78
2024/02/27 12:39:30;;;;;;;;;;;;;;;;;;4943274;28;89069;-77
2024/02/27 12:41:56;;;;;;;;;;;;;;;;;;4945625;28;91274;-78
2024/02/27 12:44:21;;;;;;;;;;;;;;;;;;4939205;28;89081;-78
2024/02/27 12:46:47;;;;;;;;;;;;;;;;;;4940274;28;89372;-78
2024/02/27 12:49:12;;;;;;;;;;;;;;;;;;4939425;28;89474;-78
2024/02/27 12:51:37;;;;;;;;;;;;;;;;;;4945639;28;91919;-78
2024/02/27 12:54:05;;;;;;;;;;;;;;;;;;4938992;28;89740;-77
2024/02/27 12:56:30;;;;;;;;;;;;;;;;;;4951986;28;89534;-78
2024/02/27 12:58:55;;;;;;;;;;;;;;;;;;4945038;28;89230;-78
2024/02/27 13:01:21;;;;;;;;;;;;;;;;;;4940805;28;92309;-78
2024/02/27 13:03:49;;;;;;;;;;;;;;;;;;4938044;28;91351;-79
2024/02/27 13:06:14;;;;;;;;;;;;;;;;;;4949040;28;89457;-77
2024/02/27 13:08:40;;;;;;;;;;;;;;;;;;4938987;28;89055;-79
2024/02/27 13:11:06;;;;;;;;;;;;;;;;;;4939624;28;89392;-78
2024/02/27 13:13:32;;;;;;;;;;;;;;;;;;4935208;28;89000;-78
2024/02/27 13:15:59;;;;;;;;;;;;;;;;;;4939517;28;89677;-76
2024/02/27 13:18:25;;;;;;;;;;;;;;;;;;4946876;28;90823;-78
2024/02/27 13:20:50;;;;;;;;;;;;;;;;;;4942626;28;90058;-78
2024/02/27 13:23:15;;;;;;;;;;;;;;;;;;4941060;28;89444;-79
2024/02/27 13:25:42;;;;;;;;;;;;;;;;;;4937153;28;89644;-79
2024/02/27 13:28:07;;;;;;;;;;;;;;;;;;4941080;28;91302;-78
2024/02/27 13:30:33;;;;;;;;;;;;;;;;;;4943356;28;89433;-78
2024/02/27 13:32:58;;;;;;;;;;;;;;;;;;4939456;28;89023;-77
2024/02/27 13:35:23;;;;;;;;;;;;;;;;;;4945705;28;89610;-78
2024/02/27 13:37:52;;;;;;;;;;;;;;;;;;4941525;28;91954;-77
2024/02/27 13:40:17;;;;;;;;;;;;;;;;;;4946964;28;90168;-78
2024/02/27 13:42:43;;;;;;;;;;;;;;;;;;4943647;28;89176;-77
2024/02/27 13:45:08;;;;;;;;;;;;;;;;;;4938360;28;90323;-78
2024/02/27 13:47:33;;;;;;;;;;;;;;;;;;4944525;28;90043;-77
2024/02/27 13:49:59;;;;;;;;;;;;;;;;;;4937116;28;91912;-76
2024/02/27 13:52:24;;;;;;;;;;;;;;;;;;4939701;28;89494;-77
2024/02/27 13:54:50;;;;;;;;;;;;;;;;;;4938595;28;90070;-77
2024/02/27 13:57:15;;;;;;;;;;;;;;;;;;4959793;28;91594;-78
2024/02/27 13:59:41;;;;;;;;;;;;;;;;;;4938549;28;89664;-78
2024/02/27 14:02:06;;;;;;;;;;;;;;;;;;4948388;28;90899;-79
2024/02/27 14:04:31;;;;;;;;;;;;;;;;;;4947720;28;89231;-78
2024/02/27 14:06:57;;;;;;;;;;;;;;;;;;4938008;28;90504;-77
2024/02/27 14:09:22;;;;;;;;;;;;;;;;;;4943475;28;89921;-78
2024/02/27 14:11:48;;;;;;;;;;;;;;;;;;4943848;28;89382;-79
2024/02/27 14:14:13;;;;;;;;;;;;;;;;;;4944636;28;89544;-78
2024/02/27 14:16:39;;;;;;;;;;;;;;;;;;4946499;28;89543;-78
2024/02/27 14:19:06;;;;;;;;;;;;;;;;;;4945014;28;89433;-78
2024/02/27 14:21:32;;;;;;;;;;;;;;;;;;4947454;28;89502;-77
2024/02/27 14:23:57;;;;;;;;;;;;;;;;;;4945070;28;89332;-78
2024/02/27 14:26:23;;;;;;;;;;;;;;;;;;4941323;28;92858;-79
2024/02/27 14:28:48;;;;;;;;;;;;;;;;;;4947799;28;89121;-78
2024/02/27 14:31:13;;;;;;;;;;;;;;;;;;4944638;28;89486;-79
2024/02/27 14:33:39;;;;;;;;;;;;;;;;;;4949652;28;90184;-78
2024/02/27 14:36:05;;;;;;;;;;;;;;;;;;4949497;28;91665;-77
2024/02/27 14:38:32;;;;;;;;;;;;;;;;;;4949367;28;90380;-79
2024/02/27 14:40:57;;;;;;;;;;;;;;;;;;4945628;28;89525;-77
2024/02/27 14:43:23;;;;;;;;;;;;;;;;;;4945308;28;89230;-77
2024/02/27 14:45:48;;;;;;;;;;;;;;;;;;4946849;28;89551;-77
2024/02/27 14:48:13;;;;;;;;;;;;;;;;;;4948976;28;89645;-79
2024/02/27 14:50:39;;;;;;;;;;;;;;;;;;4940369;28;89372;-79
2024/02/27 14:53:04;;;;;;;;;;;;;;;;;;4947282;28;89758;-79
2024/02/27 14:55:29;;;;;;;;;;;;;;;;;;4944987;28;89595;-79
2024/02/27 14:57:54;;;;;;;;;;;;;;;;;;4945136;28;90217;-77
2024/02/27 15:00:19;;;;;;;;;;;;;;;;;;4941690;28;90137;-77
2024/02/27 15:02:45;;;;;;;;;;;;;;;;;;4939808;28;89614;-79
2024/02/27 15:05:11;;;;;;;;;;;;;;;;;;4936443;28;89135;-78
2024/02/27 15:07:37;;;;;;;;;;;;;;;;;;4944323;28;93104;-77
2024/02/27 15:10:04;;;;;;;;;;;;;;;;;;4939392;28;90987;-78
2024/02/27 15:12:29;;;;;;;;;;;;;;;;;;4945301;28;89721;-77
2024/02/27 15:14:54;;;;;;;;;;;;;;;;;;4941772;28;89749;-77
2024/02/27 15:17:19;;;;;;;;;;;;;;;;;;4941740;28;89290;-77
2024/02/27 15:19:45;;;;;;;;;;;;;;;;;;4940600;28;92488;-78
2024/02/27 15:22:10;;;;;;;;;;;;;;;;;;4945865;28;89224;-78
2024/02/27 15:24:35;;;;;;;;;;;;;;;;;;4942670;28;89156;-77
2024/02/27 15:27:01;;;;;;;;;;;;;;;;;;4946017;28;91289;-76
2024/02/27 15:29:26;;;;;;;;;;;;;;;;;;4940045;28;89695;-79
2024/02/27 15:31:51;;;;;;;;;;;;;;;;;;4940025;28;92346;-78
2024/02/27 15:34:16;;;;;;;;;;;;;;;;;;4941145;28;89853;-77
2024/02/27 15:36:42;;;;;;;;;;;;;;;;;;4948162;28;89134;-77
2024/02/27 15:39:07;;;;;;;;;;;;;;;;;;4943048;28;92272;-78
2024/02/27 15:41:33;;;;;;;;;;;;;;;;;;4935549;28;92666;-80
2024/02/27 15:43:58;;;;;;;;;;;;;;;;;;4939006;28;89474;-78
2024/02/27 15:46:25;;;;;;;;;;;;;;;;;;4942134;28;89697;-79
2024/02/27 15:48:51;;;;;;;;;;;;;;;;;;4944542;28;91859;-78
2024/02/27 15:51:16;;;;;;;;;;;;;;;;;;4940223;28;89579;-78
2024/02/27 15:53:43;;;;;;;;;;;;;;;;;;4939314;28;90426;-78
2024/02/27 15:56:09;;;;;;;;;;;;;;;;;;4943611;28;90553;-78
2024/02/27 15:58:35;;;;;;;;;;;;;;;;;;4948136;28;89531;-78
2024/02/27 16:01:00;;;;;;;;;;;;;;;;;;4946037;28;92220;-79
2024/02/27 16:03:25;;;;;;;;;;;;;;;;;;4941801;28;89257;-81
2024/02/27 16:05:52;;;;;;;;;;;;;;;;;;4939763;28;92293;-78
2024/02/27 16:08:17;;;;;;;;;;;;;;;;;;4940253;28;92423;-76
2024/02/27 16:10:43;;;;;;;;;;;;;;;;;;4944637;28;89466;-78
2024/02/27 16:13:08;;;;;;;;;;;;;;;;;;4943359;28;89393;-78
2024/02/27 16:15:33;;;;;;;;;;;;;;;;;;4941539;28;89496;-82
2024/02/27 16:17:58;;;;;;;;;;;;;;;;;;4943568;28;89601;-82
2024/02/27 16:20:24;;;;;;;;;;;;;;;;;;4938254;28;90403;-76
2024/02/27 16:22:50;;;;;;;;;;;;;;;;;;4943119;28;89359;-78
2024/02/27 16:25:15;;;;;;;;;;;;;;;;;;4943178;28;89749;-78
2024/02/27 16:27:40;;;;;;;;;;;;;;;;;;4939986;28;90529;-78
2024/02/27 16:30:08;;;;;;;;;;;;;;;;;;4945922;28;89170;-77
2024/02/27 16:32:33;;;;;;;;;;;;;;;;;;4946701;28;92009;-76
2024/02/27 16:34:58;;;;;;;;;;;;;;;;;;4938456;28;89472;-77
2024/02/27 16:37:24;;;;;;;;;;;;;;;;;;4940045;28;89581;-77
2024/02/27 16:39:49;;;;;;;;;;;;;;;;;;4942125;28;89622;-78